Cane Beds, Arizona
Current Conditions -  °F | °C
As of 11:35 AM on Sunday 21 Dec 2014 (Local Time) from KAZC Reporting Station
Scattered Clouds Scattered Clouds  
Wind Chill: 42°   Ceiling: Unl
Heat Index: 45°   Visibility: 10mi
Dew Point: 36°   Wind: 5mph
Humidity: 71%   Direction: 330°NNW
Pressure: 30.16"   Gusts: NA
Location:  36.9484°N, 112.529°W
Report Text: KAZC 211835Z AUTO 33004KT 10SM SCT002 07/02 A3016 RMK AO2 T00700021
Loading
Personal Weather Stations






























Interactive Weather Map New forecast layout! Learn more

10-Day Weather Forecast

Advertisements
Track Severe Weather on mobile